createdAt,value
2022-11-13T00:01:56.353Z,11.78
2022-11-13T00:04:47.568Z,11.80
2022-11-13T00:07:38.634Z,11.79
2022-11-13T00:10:33.339Z,11.79
2022-11-13T00:13:30.710Z,11.70
2022-11-13T00:16:26.051Z,11.72
2022-11-13T00:19:20.586Z,11.73
2022-11-13T00:22:17.180Z,11.77
2022-11-13T00:25:13.681Z,11.78
2022-11-13T00:28:08.796Z,11.79
2022-11-13T00:31:05.133Z,11.79
2022-11-13T00:34:19.564Z,11.79
2022-11-13T00:37:15.923Z,11.79
2022-11-13T00:40:08.043Z,11.68
2022-11-13T00:42:59.217Z,11.69
2022-11-13T00:45:51.801Z,11.71
2022-11-13T00:48:43.405Z,11.75
2022-11-13T00:51:35.145Z,11.75
2022-11-13T00:54:27.438Z,11.70
2022-11-13T00:57:18.677Z,11.70
2022-11-13T01:00:13.465Z,11.71
2022-11-13T01:03:09.545Z,11.71
2022-11-13T01:06:10.416Z,11.69
2022-11-13T01:09:05.157Z,11.72
2022-11-13T01:12:01.836Z,11.77
2022-11-13T01:14:56.125Z,11.77
2022-11-13T01:17:52.097Z,11.79
2022-11-13T01:20:47.699Z,11.76
2022-11-13T01:23:43.109Z,11.73
2022-11-13T01:26:39.722Z,11.78
2022-11-13T01:29:34.563Z,11.75
2022-11-13T01:32:29.352Z,11.78
2022-11-13T01:35:25.955Z,11.72
2022-11-13T01:38:22.912Z,11.73
2022-11-13T01:41:23.589Z,11.73
2022-11-13T01:44:19.722Z,11.78
2022-11-13T01:47:11.854Z,11.78
2022-11-13T01:50:16.176Z,11.80
2022-11-13T01:53:11.376Z,11.73
2022-11-13T01:56:06.144Z,11.75
2022-11-13T01:59:19.239Z,11.79
2022-11-13T02:02:14.347Z,11.76
2022-11-13T02:05:10.360Z,11.81
2022-11-13T02:08:01.246Z,11.84
2022-11-13T02:10:53.399Z,11.82
2022-11-13T02:13:45.817Z,11.83
2022-11-13T02:16:43.520Z,11.83
2022-11-13T02:19:41.014Z,11.83
2022-11-13T02:22:45.363Z,11.81
2022-11-13T02:25:39.319Z,11.77
2022-11-13T02:28:30.556Z,11.78
2022-11-13T02:31:22.271Z,11.75
2022-11-13T02:34:14.364Z,11.80
2022-11-13T02:37:05.700Z,11.80
2022-11-13T02:39:57.641Z,11.73
2022-11-13T02:42:53.340Z,11.78
2022-11-13T02:45:47.830Z,11.80
2022-11-13T02:48:44.147Z,11.81
2022-11-13T02:51:41.558Z,11.80
2022-11-13T02:54:38.020Z,11.81
2022-11-13T02:57:34.858Z,11.84
2022-11-13T03:00:28.630Z,11.84
2022-11-13T03:03:48.187Z,11.75
2022-11-13T03:06:37.445Z,11.78
2022-11-13T03:09:30.312Z,11.78
2022-11-13T03:12:20.841Z,11.81
2022-11-13T03:15:13.398Z,11.76
2022-11-13T03:18:07.347Z,11.74
2022-11-13T03:20:58.505Z,11.74
2022-11-13T03:23:53.293Z,11.70
2022-11-13T03:26:49.361Z,11.75
2022-11-13T03:29:41.097Z,11.73
2022-11-13T03:32:37.256Z,11.75
2022-11-13T03:35:40.831Z,11.67
2022-11-13T03:38:38.659Z,11.67
2022-11-13T03:41:33.559Z,11.67
2022-11-13T03:44:28.471Z,11.67
2022-11-13T03:47:24.885Z,11.69
2022-11-13T03:50:21.336Z,11.69
2022-11-13T03:53:16.594Z,11.73
2022-11-13T03:56:13.046Z,11.72
2022-11-13T03:59:08.587Z,11.67
2022-11-13T04:02:03.240Z,11.68
2022-11-13T04:04:57.751Z,11.68
2022-11-13T04:07:49.380Z,11.64
2022-11-13T04:10:44.086Z,11.63
2022-11-13T04:13:41.561Z,11.62
2022-11-13T04:16:38.301Z,11.67
2022-11-13T04:19:34.788Z,11.65
2022-11-13T04:22:30.179Z,11.65
2022-11-13T04:25:25.665Z,11.63
2022-11-13T04:28:19.912Z,11.67
2022-11-13T04:31:15.875Z,11.65
2022-11-13T04:34:13.068Z,11.64
2022-11-13T04:37:08.524Z,11.64
2022-11-13T04:40:00.282Z,11.54
2022-11-13T04:42:51.397Z,11.53
2022-11-13T04:45:42.842Z,11.52
2022-11-13T04:48:33.345Z,11.56
2022-11-13T04:51:24.497Z,11.52
2022-11-13T04:54:25.753Z,11.44
2022-11-13T04:57:19.550Z,11.40
2022-11-13T05:00:13.501Z,11.38
2022-11-13T05:03:04.980Z,11.28
2022-11-13T05:05:55.634Z,11.28
2022-11-13T05:08:51.621Z,11.34
2022-11-13T05:11:42.413Z,11.38
2022-11-13T05:14:40.232Z,11.28
2022-11-13T05:17:35.950Z,11.21
2022-11-13T05:20:30.626Z,11.22
2022-11-13T05:23:25.826Z,11.26
2022-11-13T05:26:20.957Z,11.18
2022-11-13T05:29:17.856Z,11.10
2022-11-13T05:32:13.022Z,11.22
2022-11-13T05:35:11.673Z,11.23
2022-11-13T05:38:06.370Z,11.16
2022-11-13T05:41:04.891Z,11.18
2022-11-13T05:44:00.666Z,11.21
2022-11-13T05:46:57.123Z,11.25
2022-11-13T05:49:52.250Z,11.25
2022-11-13T05:52:45.735Z,11.28
2022-11-13T05:55:36.420Z,11.30
2022-11-13T05:58:33.636Z,11.29
2022-11-13T06:01:30.260Z,11.27
2022-11-13T06:04:22.102Z,11.31
2022-11-13T06:07:13.769Z,11.22
2022-11-13T06:10:04.849Z,11.23
2022-11-13T06:12:57.141Z,11.24
2022-11-13T06:15:47.934Z,11.23
2022-11-13T06:18:39.452Z,11.20
2022-11-13T06:21:31.831Z,11.08
2022-11-13T06:24:22.350Z,11.08
2022-11-13T06:27:12.883Z,11.01
2022-11-13T06:30:03.987Z,11.03
2022-11-13T06:32:56.217Z,11.06
2022-11-13T06:35:46.886Z,11.03
2022-11-13T06:38:38.854Z,11.02
2022-11-13T06:41:33.338Z,11.07
2022-11-13T06:44:24.817Z,11.04
2022-11-13T06:47:16.555Z,11.05
2022-11-13T06:50:09.437Z,11.04
2022-11-13T06:52:59.926Z,11.08
2022-11-13T06:55:52.614Z,11.09
2022-11-13T06:58:43.909Z,11.09
2022-11-13T07:01:36.206Z,11.10
2022-11-13T07:04:26.863Z,11.03
2022-11-13T07:07:17.231Z,11.00
2022-11-13T07:10:09.520Z,11.05
2022-11-13T07:13:03.052Z,11.08
2022-11-13T07:15:53.735Z,11.11
2022-11-13T07:18:44.407Z,11.12
2022-11-13T07:21:35.294Z,11.15
2022-11-13T07:24:26.208Z,11.11
2022-11-13T07:27:16.843Z,11.04
2022-11-13T07:30:09.268Z,10.93
2022-11-13T07:33:02.224Z,11.00
2022-11-13T07:35:51.322Z,11.06
2022-11-13T07:38:41.662Z,11.02
2022-11-13T07:41:32.154Z,11.08
2022-11-13T07:44:48.125Z,11.08
2022-11-13T07:47:32.678Z,10.96
2022-11-13T07:50:23.228Z,10.94
2022-11-13T07:53:13.915Z,10.85
2022-11-13T07:56:06.230Z,10.92
2022-11-13T07:58:57.620Z,11.00
2022-11-13T08:01:49.434Z,11.00
2022-11-13T08:04:40.872Z,10.90
2022-11-13T08:07:32.483Z,10.86
2022-11-13T08:10:23.258Z,11.00
2022-11-13T08:13:14.076Z,10.99
2022-11-13T08:16:07.290Z,11.07
2022-11-13T08:18:57.350Z,11.09
2022-11-13T08:21:49.649Z,11.11
2022-11-13T08:24:44.407Z,11.10
2022-11-13T08:27:36.032Z,11.12
2022-11-13T08:30:29.311Z,11.16
2022-11-13T08:33:19.865Z,11.15
2022-11-13T08:36:12.577Z,11.03
2022-11-13T08:39:03.271Z,11.11
2022-11-13T08:41:53.774Z,11.18
2022-11-13T08:44:45.014Z,11.18
2022-11-13T08:47:36.368Z,11.24
2022-11-13T08:50:27.247Z,11.29
2022-11-13T08:53:18.451Z,11.26
2022-11-13T08:56:09.566Z,11.19
2022-11-13T08:59:00.899Z,11.07
2022-11-13T09:01:58.331Z,11.09
2022-11-13T09:04:48.990Z,11.17
2022-11-13T09:07:39.714Z,11.16
2022-11-13T09:10:30.484Z,11.15
2022-11-13T09:13:21.474Z,11.17
2022-11-13T09:16:12.104Z,10.98
2022-11-13T09:19:02.911Z,10.93
2022-11-13T09:21:53.894Z,10.93
2022-11-13T09:24:44.354Z,10.97
2022-11-13T09:27:34.861Z,11.01
2022-11-13T09:30:26.017Z,10.94
2022-11-13T09:33:17.185Z,10.94
2022-11-13T09:36:14.251Z,11.09
2022-11-13T09:39:05.854Z,11.00
2022-11-13T09:42:00.126Z,10.95
2022-11-13T09:44:55.161Z,10.83
2022-11-13T09:47:48.809Z,10.90
2022-11-13T09:50:41.055Z,10.87
2022-11-13T09:53:36.510Z,10.90
2022-11-13T09:56:34.266Z,10.84
2022-11-13T09:59:30.061Z,10.78
2022-11-13T10:02:40.907Z,10.80
2022-11-13T10:05:41.017Z,10.86
2022-11-13T10:08:40.261Z,10.90
2022-11-13T10:11:37.679Z,10.82
2022-11-13T10:14:35.810Z,10.79
2022-11-13T10:17:30.480Z,10.72
2022-11-13T10:20:24.884Z,10.73
2022-11-13T10:23:21.255Z,10.69
2022-11-13T10:26:17.131Z,10.80
2022-11-13T10:29:15.610Z,10.69
2022-11-13T10:32:21.629Z,10.64
2022-11-13T10:35:34.297Z,10.58
2022-11-13T10:38:31.270Z,10.78
2022-11-13T10:41:23.862Z,10.83
2022-11-13T10:44:35.505Z,10.84
2022-11-13T10:48:02.013Z,10.79
2022-11-13T10:50:43.970Z,10.83
2022-11-13T10:53:42.063Z,10.82
2022-11-13T10:56:35.483Z,10.70
2022-11-13T10:59:26.907Z,10.79
2022-11-13T11:02:24.552Z,10.84
2022-11-13T11:10:31.061Z,10.60
2022-11-13T11:13:46.701Z,10.64
2022-11-13T11:16:38.155Z,10.80
2022-11-13T11:19:36.414Z,10.85
2022-11-13T11:22:32.986Z,10.78
2022-11-13T11:25:38.808Z,10.76
2022-11-13T11:28:44.522Z,10.71
2022-11-13T11:31:41.183Z,10.53
2022-11-13T11:34:41.735Z,10.52
2022-11-13T11:37:37.872Z,10.55
2022-11-13T11:40:34.383Z,10.52
2022-11-13T11:43:30.454Z,10.43
2022-11-13T11:46:24.934Z,10.45
2022-11-13T11:49:17.665Z,10.49
2022-11-13T11:52:23.133Z,10.50
2022-11-13T11:55:48.483Z,10.59
2022-11-13T11:59:02.903Z,10.57
2022-11-13T12:02:29.010Z,10.53
2022-11-13T12:05:44.214Z,10.42
2022-11-13T12:08:44.868Z,10.31
2022-11-13T12:11:40.562Z,10.22
2022-11-13T12:14:41.842Z,10.13
2022-11-13T12:17:47.970Z,10.14
2022-11-13T12:20:45.313Z,10.05
2022-11-13T12:23:53.325Z,10.11
2022-11-13T12:26:48.403Z,10.03
2022-11-13T12:29:54.142Z,10.03
2022-11-13T12:33:12.083Z,9.90
2022-11-13T12:36:04.377Z,9.72
2022-11-13T12:39:07.267Z,9.77
2022-11-13T12:42:05.334Z,9.79
2022-11-13T12:45:07.819Z,9.84
2022-11-13T12:48:11.214Z,9.68
2022-11-13T12:51:05.914Z,9.62
2022-11-13T12:53:58.506Z,9.65
2022-11-13T12:56:49.309Z,9.43
2022-11-13T12:59:43.163Z,9.37
2022-11-13T13:02:50.582Z,9.45
2022-11-13T13:06:06.954Z,9.51
2022-11-13T13:09:13.499Z,9.45
2022-11-13T13:12:08.410Z,9.46
2022-11-13T13:15:12.653Z,9.46
2022-11-13T13:18:12.791Z,9.52
2022-11-13T13:21:11.336Z,9.42
2022-11-13T13:24:30.591Z,9.57
2022-11-13T13:27:29.124Z,9.57
2022-11-13T13:30:26.519Z,9.57
2022-11-13T13:33:25.980Z,9.44
2022-11-13T13:36:26.282Z,9.50
2022-11-13T13:39:34.291Z,9.46
2022-11-13T13:42:45.702Z,9.28
2022-11-13T13:45:51.857Z,9.35
2022-11-13T13:48:50.687Z,9.44
2022-11-13T13:51:47.645Z,9.47
2022-11-13T13:54:41.739Z,9.47
2022-11-13T13:57:34.304Z,9.47
2022-11-13T14:00:26.229Z,9.46
2022-11-13T14:03:25.298Z,9.39
2022-11-13T14:06:24.106Z,9.37
2022-11-13T14:09:21.568Z,9.37
2022-11-13T14:12:23.569Z,9.28
2022-11-13T14:15:27.622Z,9.34
2022-11-13T14:18:21.076Z,9.38
2022-11-13T14:21:13.259Z,9.35
2022-11-13T14:24:05.481Z,9.38
2022-11-13T14:26:58.636Z,9.33
2022-11-13T14:29:51.477Z,9.26
2022-11-13T14:32:47.128Z,9.34
2022-11-13T14:35:52.379Z,9.20
2022-11-13T14:38:52.086Z,9.26
2022-11-13T14:41:55.886Z,9.15
2022-11-13T14:44:48.168Z,9.10
2022-11-13T14:47:39.129Z,9.19
2022-11-13T14:50:32.271Z,9.19
2022-11-13T14:53:29.807Z,11.73
2022-11-13T14:56:20.454Z,13.51
2022-11-13T14:59:19.357Z,13.81
2022-11-13T15:02:13.715Z,14.28
2022-11-13T15:05:04.399Z,12.02
2022-11-13T15:07:56.139Z,11.08
2022-11-13T15:10:47.019Z,10.35
2022-11-13T15:13:38.666Z,10.08
2022-11-13T15:16:33.147Z,9.94
2022-11-13T15:19:34.482Z,9.69
2022-11-13T15:22:27.457Z,9.57
2022-11-13T15:25:22.627Z,9.45
2022-11-13T15:28:16.654Z,9.52
2022-11-13T15:31:16.529Z,9.32
2022-11-13T15:34:10.991Z,9.30
2022-11-13T15:37:02.302Z,9.40
2022-11-13T15:39:53.307Z,9.38
2022-11-13T15:42:44.062Z,9.38
2022-11-13T15:45:37.637Z,9.18
2022-11-13T15:48:31.561Z,9.05
2022-11-13T15:51:31.698Z,9.02
2022-11-13T15:54:29.972Z,9.09
2022-11-13T15:57:24.387Z,9.06
2022-11-13T16:00:25.527Z,9.07
2022-11-13T16:03:19.321Z,9.04
2022-11-13T16:06:18.290Z,9.13
2022-11-13T16:09:14.201Z,9.10
2022-11-13T16:12:05.985Z,9.15
2022-11-13T16:14:58.606Z,9.13
2022-11-13T16:17:58.523Z,9.16
2022-11-13T16:20:50.365Z,9.08
2022-11-13T16:23:42.266Z,9.03
2022-11-13T16:26:37.121Z,9.06
2022-11-13T16:29:31.394Z,9.16
2022-11-13T16:32:26.262Z,9.07
2022-11-13T16:35:19.800Z,9.01
2022-11-13T16:38:16.877Z,9.01
2022-11-13T16:41:12.874Z,8.95
2022-11-13T16:44:04.978Z,9.11
2022-11-13T16:46:56.115Z,9.07
2022-11-13T16:49:49.497Z,9.02
2022-11-13T16:52:39.954Z,9.09
2022-11-13T16:55:33.499Z,9.02
2022-11-13T16:58:26.901Z,9.12
2022-11-13T17:01:22.523Z,9.13
2022-11-13T17:04:22.451Z,9.04
2022-11-13T17:07:18.441Z,9.01
2022-11-13T17:10:30.930Z,9.00
2022-11-13T17:13:27.661Z,8.93
2022-11-13T17:16:23.474Z,8.95
2022-11-13T17:19:18.100Z,8.92
2022-11-13T17:22:12.541Z,8.84
2022-11-13T17:25:03.120Z,8.87
2022-11-13T17:27:53.925Z,8.88
2022-11-13T17:30:44.797Z,8.93
2022-11-13T17:33:36.084Z,8.81
2022-11-13T17:36:26.751Z,8.78
2022-11-13T17:39:17.440Z,8.77
2022-11-13T17:42:08.329Z,8.82
2022-11-13T17:44:59.110Z,8.78
2022-11-13T17:47:49.959Z,8.86
2022-11-13T17:50:40.699Z,8.72
2022-11-13T17:53:32.530Z,8.80
2022-11-13T17:56:23.538Z,8.81
2022-11-13T17:59:14.038Z,8.74
2022-11-13T18:02:05.062Z,8.74
2022-11-13T18:04:58.354Z,8.82
2022-11-13T18:07:47.563Z,8.90
2022-11-13T18:10:41.673Z,8.84
2022-11-13T18:13:32.730Z,8.75
2022-11-13T18:16:25.984Z,8.62
2022-11-13T18:19:16.793Z,8.66
2022-11-13T18:22:07.756Z,8.65
2022-11-13T18:25:03.162Z,8.63
2022-11-13T18:27:54.058Z,8.65
2022-11-13T18:30:45.401Z,8.52
2022-11-13T18:33:36.399Z,8.58
2022-11-13T18:36:27.168Z,8.36
2022-11-13T18:39:17.909Z,8.57
2022-11-13T18:42:08.698Z,8.66
2022-11-13T18:45:03.079Z,8.55
2022-11-13T18:47:56.373Z,8.56
2022-11-13T18:50:57.470Z,8.53
2022-11-13T18:53:49.460Z,8.50
2022-11-13T18:56:41.062Z,8.47
2022-11-13T18:59:34.330Z,8.54
2022-11-13T19:02:23.437Z,8.51
2022-11-13T19:07:57.133Z,8.59
2022-11-13T19:10:47.763Z,8.49
2022-11-13T19:13:38.904Z,8.47
2022-11-13T19:16:33.195Z,8.45
2022-11-13T19:19:25.258Z,8.12
2022-11-13T19:22:16.561Z,8.17
2022-11-13T19:25:09.396Z,8.12
2022-11-13T19:27:59.855Z,8.14
2022-11-13T19:30:54.737Z,8.22
2022-11-13T19:33:46.149Z,8.27
2022-11-13T19:36:37.830Z,8.17
2022-11-13T19:39:28.553Z,8.17
2022-11-13T19:42:19.399Z,8.24
2022-11-13T19:45:11.901Z,8.04
2022-11-13T19:48:02.530Z,7.96
2022-11-13T19:50:53.910Z,7.98
2022-11-13T19:53:46.425Z,7.97
2022-11-13T19:56:37.790Z,8.04
2022-11-13T19:59:28.802Z,8.09
2022-11-13T20:02:20.326Z,8.21
2022-11-13T20:05:12.858Z,8.29
2022-11-13T20:08:03.523Z,8.27
2022-11-13T20:10:54.863Z,8.26
2022-11-13T20:13:46.379Z,8.11
2022-11-13T20:16:37.206Z,8.03
2022-11-13T20:19:27.836Z,8.06
2022-11-13T20:22:19.720Z,8.18
2022-11-13T20:25:12.613Z,8.15
2022-11-13T20:28:03.257Z,8.17
2022-11-13T20:31:03.132Z,8.20
2022-11-13T20:33:56.115Z,8.26
2022-11-13T20:36:46.280Z,8.15
2022-11-13T20:39:38.983Z,8.26
2022-11-13T20:42:30.196Z,8.29
2022-11-13T20:45:21.252Z,8.33
2022-11-13T20:48:12.285Z,8.34
2022-11-13T20:51:11.596Z,8.35
2022-11-13T20:54:03.937Z,8.34
2022-11-13T20:56:54.395Z,8.38
2022-11-13T20:59:45.150Z,8.37
2022-11-13T21:02:36.757Z,8.49
2022-11-13T21:05:28.460Z,8.42
2022-11-13T21:08:19.069Z,8.46
2022-11-13T21:11:13.699Z,8.41
2022-11-13T21:14:05.495Z,8.45
2022-11-13T21:17:00.897Z,8.43
2022-11-13T21:19:56.565Z,8.47
2022-11-13T21:22:49.638Z,8.43
2022-11-13T21:25:41.587Z,8.49
2022-11-13T21:28:34.136Z,8.42
2022-11-13T21:31:26.661Z,8.47
2022-11-13T21:34:17.396Z,8.42
2022-11-13T21:37:11.040Z,8.53
2022-11-13T21:40:01.759Z,8.59
2022-11-13T21:43:00.559Z,8.59
2022-11-13T21:46:04.446Z,8.56
2022-11-13T21:49:06.222Z,8.47
2022-11-13T21:51:58.094Z,8.47
2022-11-13T21:54:48.890Z,8.61
2022-11-13T21:57:43.669Z,8.64
2022-11-13T22:00:40.524Z,8.64
2022-11-13T22:03:32.501Z,8.66
2022-11-13T22:06:26.184Z,8.69
2022-11-13T22:09:21.611Z,8.62
2022-11-13T22:12:17.371Z,8.63
2022-11-13T22:15:11.344Z,8.58
2022-11-13T22:18:01.964Z,8.48
2022-11-13T22:20:52.434Z,8.50
2022-11-13T22:23:43.320Z,8.45
2022-11-13T22:26:37.136Z,8.30
2022-11-13T22:29:28.210Z,8.25
2022-11-13T22:32:18.670Z,8.24
2022-11-13T22:35:12.704Z,8.01
2022-11-13T22:38:05.184Z,8.00
2022-11-13T22:40:57.202Z,8.12
2022-11-13T22:43:49.348Z,8.20
2022-11-13T22:46:40.322Z,8.22
2022-11-13T22:49:30.845Z,8.24
2022-11-13T22:52:21.676Z,8.23
2022-11-13T22:55:13.805Z,8.20
2022-11-13T22:58:05.043Z,8.29
2022-11-13T23:00:57.882Z,8.34
2022-11-13T23:03:49.560Z,8.27
2022-11-13T23:06:41.672Z,8.26
2022-11-13T23:09:34.170Z,8.30
2022-11-13T23:12:25.492Z,8.34
2022-11-13T23:15:16.601Z,8.34
2022-11-13T23:18:09.970Z,8.36
2022-11-13T23:21:01.318Z,8.33
2022-11-13T23:23:53.149Z,8.37
2022-11-13T23:26:44.317Z,8.40
2022-11-13T23:29:36.053Z,8.34
2022-11-13T23:32:26.817Z,8.42
2022-11-13T23:35:17.872Z,8.46
2022-11-13T23:38:08.649Z,8.46
2022-11-13T23:41:01.320Z,8.37
2022-11-13T23:44:08.049Z,8.46
2022-11-13T23:47:00.012Z,8.38
2022-11-13T23:49:51.181Z,8.30
2022-11-13T23:52:42.615Z,8.40
2022-11-13T23:55:33.134Z,8.52
2022-11-13T23:58:24.316Z,8.55
